Time;durP1;ratioP1;P1;durP2;ratioP2;P2;SDS_P1;SDS_P2;PMS_P1;PMS_P2;Temp;Humidity;BMP_temperature;BMP_pressure;BME280_temperature;BME280_humidity;BME280_pressure;Samples;Min_cycle;Max_cycle;Signal;HPM_P1;HPM_P2
2022/05/09 00:01:57;;;;;;;;;;;12.20;99.90;;;;;;5056345;28;19905;-71
2022/05/09 00:04:22;;;;;;;;;;;12.10;99.90;;;;;;5055733;28;19904;-71
2022/05/09 00:06:48;;;;;;;;;;;12.20;99.90;;;;;;5055739;28;19904;-71
2022/05/09 00:09:15;;;;;;;;;;;12.10;99.90;;;;;;5055963;28;19904;-71
2022/05/09 00:11:41;;;;;;;;;;;11.90;99.90;;;;;;5055899;28;19905;-71
2022/05/09 00:14:06;;;;;;;;;;;11.80;99.90;;;;;;5055571;28;19931;-70
2022/05/09 00:16:34;;;;;;;;;;;11.80;99.90;;;;;;5055470;28;20396;-71
2022/05/09 00:19:03;;;;;;;;;;;11.70;99.90;;;;;;5056065;28;19911;-71
2022/05/09 00:21:33;;;;;;;;;;;11.60;99.90;;;;;;5055472;28;19995;-71
2022/05/09 00:23:59;;;;;;;;;;;11.60;99.90;;;;;;5055231;28;20444;-71
2022/05/09 00:26:30;;;;;;;;;;;11.50;99.90;;;;;;5055333;28;19908;-70
2022/05/09 00:28:55;;;;;;;;;;;11.50;99.90;;;;;;5055632;28;19912;-71
2022/05/09 00:31:21;;;;;;;;;;;11.50;99.90;;;;;;5055236;28;20273;-71
2022/05/09 00:33:46;;;;;;;;;;;11.60;99.90;;;;;;5054465;28;19909;-70
2022/05/09 00:36:12;;;;;;;;;;;11.70;99.90;;;;;;5055160;28;20321;-71
2022/05/09 00:38:37;;;;;;;;;;;11.60;99.90;;;;;;5055678;28;19927;-71
2022/05/09 00:43:48;;;;;;;;;;;11.40;99.90;;;;;;5055063;28;19958;-71
2022/05/09 00:46:13;;;;;;;;;;;11.40;99.90;;;;;;5055541;28;19916;-70
2022/05/09 00:48:39;;;;;;;;;;;11.30;99.90;;;;;;5054921;28;19905;-71
2022/05/09 00:51:07;;;;;;;;;;;11.20;99.90;;;;;;5054898;28;19939;-71
2022/05/09 00:53:33;;;;;;;;;;;11.20;99.90;;;;;;5054796;28;19915;-71
2022/05/09 00:56:00;;;;;;;;;;;11.20;99.90;;;;;;5054805;28;19995;-71
2022/05/09 00:58:45;;;;;;;;;;;11.30;99.90;;;;;;5055007;28;19951;-70
2022/05/09 01:01:11;;;;;;;;;;;11.30;99.90;;;;;;5054700;28;19904;-71
2022/05/09 01:06:29;;;;;;;;;;;11.20;99.90;;;;;;5054935;28;19911;-71
2022/05/09 01:08:55;;;;;;;;;;;11.10;99.90;;;;;;5054532;28;19905;-70
2022/05/09 01:11:23;;;;;;;;;;;11.10;99.90;;;;;;5054488;28;20006;-71
2022/05/09 01:13:52;;;;;;;;;;;11.10;99.90;;;;;;5054975;28;19912;-71
2022/05/09 01:16:18;;;;;;;;;;;11.10;99.90;;;;;;5054449;28;19905;-71
2022/05/09 01:18:44;;;;;;;;;;;11.20;99.90;;;;;;5054686;28;19908;-71
2022/05/09 01:21:29;;;;;;;;;;;11.20;99.90;;;;;;5054326;28;19905;-70
2022/05/09 01:23:54;;;;;;;;;;;11.20;99.90;;;;;;5045019;28;19922;-71
2022/05/09 01:26:20;;;;;;;;;;;11.10;99.90;;;;;;5074225;28;19998;-71
2022/05/09 01:28:46;;;;;;;;;;;11.10;99.90;;;;;;5074131;28;19964;-71
2022/05/09 01:31:14;;;;;;;;;;;11.10;99.90;;;;;;5074109;28;19930;-71
2022/05/09 01:33:41;;;;;;;;;;;11.10;99.90;;;;;;5074578;28;19908;-71
2022/05/09 01:36:08;;;;;;;;;;;11.00;99.90;;;;;;5074055;28;19911;-71
2022/05/09 01:38:44;;;;;;;;;;;11.00;99.90;;;;;;5074061;28;19904;-71
2022/05/09 01:41:09;;;;;;;;;;;11.00;99.90;;;;;;5074267;28;19954;-71
2022/05/09 01:43:40;;;;;;;;;;;10.90;99.90;;;;;;5073816;28;19908;-70
2022/05/09 01:46:13;;;;;;;;;;;11.00;99.90;;;;;;5074218;28;19904;-70
2022/05/09 01:51:22;;;;;;;;;;;11.00;99.90;;;;;;5074220;28;20486;-71
2022/05/09 01:53:50;;;;;;;;;;;11.00;99.90;;;;;;5073746;28;19954;-71
2022/05/09 01:56:17;;;;;;;;;;;10.90;99.90;;;;;;5072495;28;19908;-70
2022/05/09 01:58:42;;;;;;;;;;;10.70;99.90;;;;;;5074019;28;19904;-70
2022/05/09 02:01:08;;;;;;;;;;;10.70;99.90;;;;;;5073716;28;19911;-71
2022/05/09 02:03:34;;;;;;;;;;;10.70;99.90;;;;;;5073737;28;19919;-71
2022/05/09 02:06:00;;;;;;;;;;;10.80;99.90;;;;;;5073933;28;19915;-70
2022/05/09 02:08:25;;;;;;;;;;;10.60;99.90;;;;;;5073647;28;19995;-71
2022/05/09 02:10:51;;;;;;;;;;;10.70;99.90;;;;;;5073930;28;20319;-70
2022/05/09 02:13:16;;;;;;;;;;;10.60;99.90;;;;;;5073541;28;19908;-70
2022/05/09 02:15:42;;;;;;;;;;;10.50;99.90;;;;;;5073532;28;20283;-71
2022/05/09 02:18:07;;;;;;;;;;;10.50;99.90;;;;;;5073557;28;20352;-70
2022/05/09 02:20:33;;;;;;;;;;;10.50;99.90;;;;;;5074114;28;20356;-70
2022/05/09 02:22:59;;;;;;;;;;;10.40;99.90;;;;;;5073498;28;19999;-70
2022/05/09 02:25:29;;;;;;;;;;;10.50;99.90;;;;;;5055094;28;19959;-71
2022/05/09 02:28:07;;;;;;;;;;;10.50;99.90;;;;;;5053453;28;20003;-71
2022/05/09 02:30:33;;;;;;;;;;;10.50;99.90;;;;;;5053740;28;20077;-71
2022/05/09 02:32:59;;;;;;;;;;;10.40;99.90;;;;;;5053313;28;19915;-71
2022/05/09 02:35:24;;;;;;;;;;;10.40;99.90;;;;;;5053359;28;19905;-71
2022/05/09 02:37:52;;;;;;;;;;;10.50;99.90;;;;;;5053609;28;19995;-71
2022/05/09 02:40:17;;;;;;;;;;;10.40;99.90;;;;;;5053316;28;19905;-71
2022/05/09 02:42:43;;;;;;;;;;;10.50;99.90;;;;;;5053035;28;19916;-71
2022/05/09 02:45:10;;;;;;;;;;;10.30;99.90;;;;;;5053266;28;19905;-71
2022/05/09 02:47:35;;;;;;;;;;;10.30;99.90;;;;;;5053222;28;19908;-70
2022/05/09 02:50:01;;;;;;;;;;;10.30;99.90;;;;;;5053226;28;19970;-71
2022/05/09 02:52:26;;;;;;;;;;;10.40;99.90;;;;;;5053192;28;19994;-70
2022/05/09 02:54:52;;;;;;;;;;;10.40;99.90;;;;;;5053407;28;19959;-70
2022/05/09 02:57:18;;;;;;;;;;;10.30;99.90;;;;;;5055793;28;19931;-71
2022/05/09 02:59:44;;;;;;;;;;;10.20;99.90;;;;;;5057565;28;19910;-70
2022/05/09 03:02:09;;;;;;;;;;;10.20;99.90;;;;;;5057275;28;19905;-71
2022/05/09 03:04:41;;;;;;;;;;;10.20;99.90;;;;;;5056906;28;19975;-71
2022/05/09 03:07:07;;;;;;;;;;;10.20;99.90;;;;;;5057488;28;20396;-70
2022/05/09 03:09:32;;;;;;;;;;;10.20;99.90;;;;;;5056808;28;19936;-71
2022/05/09 03:11:58;;;;;;;;;;;10.20;99.90;;;;;;5056752;28;19954;-71
2022/05/09 03:14:23;;;;;;;;;;;10.10;99.90;;;;;;5056924;28;20018;-71
2022/05/09 03:16:49;;;;;;;;;;;10.00;99.90;;;;;;5056665;28;19988;-71
2022/05/09 03:19:14;;;;;;;;;;;10.00;99.90;;;;;;5056642;28;19912;-70
2022/05/09 03:21:40;;;;;;;;;;;10.10;99.90;;;;;;5057208;28;20460;-70
2022/05/09 03:24:06;;;;;;;;;;;10.10;99.90;;;;;;5056395;28;19955;-71
2022/05/09 03:26:31;;;;;;;;;;;10.10;99.90;;;;;;5056830;28;19954;-71
2022/05/09 03:28:57;;;;;;;;;;;10.10;99.90;;;;;;5056449;28;20281;-70
2022/05/09 03:31:23;;;;;;;;;;;9.90;99.90;;;;;;5056697;28;19905;-70
2022/05/09 03:33:48;;;;;;;;;;;9.70;99.90;;;;;;5056270;28;19908;-71
2022/05/09 03:36:14;;;;;;;;;;;9.70;99.90;;;;;;5056608;28;19940;-70
2022/05/09 03:38:39;;;;;;;;;;;9.80;99.90;;;;;;5056312;28;20361;-70
2022/05/09 03:41:05;;;;;;;;;;;9.90;99.90;;;;;;5056546;28;20365;-71
2022/05/09 03:43:31;;;;;;;;;;;9.80;99.90;;;;;;5056170;28;19905;-70
2022/05/09 03:45:58;;;;;;;;;;;9.70;99.90;;;;;;5056418;28;19905;-71
2022/05/09 03:48:24;;;;;;;;;;;9.60;99.90;;;;;;5056091;28;19909;-71
2022/05/09 03:50:49;;;;;;;;;;;9.60;99.90;;;;;;5056612;28;19905;-70
2022/05/09 03:53:15;;;;;;;;;;;9.60;99.90;;;;;;5055684;28;19912;-71
2022/05/09 03:55:41;;;;;;;;;;;9.70;99.90;;;;;;5056245;28;19984;-70
2022/05/09 03:58:07;;;;;;;;;;;9.70;99.90;;;;;;5037975;28;19905;-70
2022/05/09 04:00:33;;;;;;;;;;;9.70;99.90;;;;;;5055858;28;19912;-70
2022/05/09 04:02:59;;;;;;;;;;;9.70;99.90;;;;;;5055848;28;19927;-70
2022/05/09 04:05:30;;;;;;;;;;;9.70;99.90;;;;;;5055861;28;19904;-70
2022/05/09 04:07:57;;;;;;;;;;;9.70;99.90;;;;;;5056256;28;19908;-70
2022/05/09 04:10:23;;;;;;;;;;;9.70;99.90;;;;;;5055680;28;19904;-70
2022/05/09 04:12:49;;;;;;;;;;;9.80;99.90;;;;;;5055593;28;19990;-71
2022/05/09 04:17:59;;;;;;;;;;;9.70;99.90;;;;;;5055890;28;19915;-70
2022/05/09 04:20:26;;;;;;;;;;;9.60;99.90;;;;;;5055755;28;20308;-71
2022/05/09 04:22:52;;;;;;;;;;;9.60;99.90;;;;;;5055410;28;19999;-70
2022/05/09 04:25:19;;;;;;;;;;;9.60;99.90;;;;;;5055292;28;20462;-71
2022/05/09 04:27:45;;;;;;;;;;;9.70;99.90;;;;;;5055602;28;19927;-70
2022/05/09 04:30:11;;;;;;;;;;;9.70;99.90;;;;;;5055257;28;20357;-70
2022/05/09 04:32:37;;;;;;;;;;;9.50;99.90;;;;;;5055184;28;19905;-71
2022/05/09 04:35:03;;;;;;;;;;;9.40;99.90;;;;;;5055231;28;20111;-70
2022/05/09 04:37:29;;;;;;;;;;;9.20;99.90;;;;;;5055750;28;19905;-70
2022/05/09 04:39:55;;;;;;;;;;;9.30;99.90;;;;;;5037283;28;19905;-71
2022/05/09 04:42:21;;;;;;;;;;;9.40;99.90;;;;;;5055527;28;19911;-71
2022/05/09 04:44:46;;;;;;;;;;;9.40;99.90;;;;;;5037012;28;19905;-71
2022/05/09 04:47:13;;;;;;;;;;;9.40;99.90;;;;;;5054974;28;19905;-71
2022/05/09 04:49:39;;;;;;;;;;;9.40;99.90;;;;;;5054956;28;20262;-71
2022/05/09 04:52:04;;;;;;;;;;;9.40;99.90;;;;;;5054852;28;19912;-70
2022/05/09 04:54:30;;;;;;;;;;;9.40;99.90;;;;;;5054797;28;19909;-70
2022/05/09 04:56:55;;;;;;;;;;;9.40;99.90;;;;;;5055103;28;19905;-70
2022/05/09 04:59:21;;;;;;;;;;;9.30;99.90;;;;;;5055050;28;19904;-71
2022/05/09 05:01:46;;;;;;;;;;;9.30;99.90;;;;;;5055265;28;20320;-71
2022/05/09 05:04:14;;;;;;;;;;;9.40;99.90;;;;;;5054637;28;19920;-70
2022/05/09 05:06:39;;;;;;;;;;;9.60;99.90;;;;;;5054861;28;19905;-70
2022/05/09 05:09:05;;;;;;;;;;;9.70;99.90;;;;;;5054567;28;19911;-70
2022/05/09 05:11:30;;;;;;;;;;;9.90;99.90;;;;;;5055066;28;19904;-71
2022/05/09 05:13:56;;;;;;;;;;;9.90;99.90;;;;;;5054675;28;19959;-71
2022/05/09 05:16:59;;;;;;;;;;;9.90;99.90;;;;;;5054932;28;19943;-71
2022/05/09 05:19:07;;;;;;;;;;;10.00;99.90;;;;;;5053296;28;19904;-71
2022/05/09 05:21:32;;;;;;;;;;;10.20;99.90;;;;;;5036467;28;19905;-71
2022/05/09 05:23:59;;;;;;;;;;;10.20;99.90;;;;;;5054102;28;19916;-71
2022/05/09 05:26:24;;;;;;;;;;;10.30;99.90;;;;;;5054497;28;19904;-70
2022/05/09 05:28:50;;;;;;;;;;;10.30;99.90;;;;;;5054159;28;20281;-71
2022/05/09 05:31:17;;;;;;;;;;;10.30;99.90;;;;;;5054138;28;19911;-71
2022/05/09 05:33:44;;;;;;;;;;;10.50;99.90;;;;;;5036185;28;20262;-71
2022/05/09 05:36:09;;;;;;;;;;;10.80;99.90;;;;;;5036173;28;19905;-71
2022/05/09 05:38:35;;;;;;;;;;;10.70;99.90;;;;;;5054297;28;19911;-70
2022/05/09 05:41:01;;;;;;;;;;;10.70;99.90;;;;;;5053988;28;19940;-71
2022/05/09 05:43:26;;;;;;;;;;;10.70;99.90;;;;;;5054223;28;19905;-70
2022/05/09 05:45:56;;;;;;;;;;;10.80;99.90;;;;;;5053851;28;19948;-70
2022/05/09 05:48:21;;;;;;;;;;;10.90;99.90;;;;;;5054108;28;19904;-71
2022/05/09 05:50:47;;;;;;;;;;;11.20;99.90;;;;;;5053826;28;20324;-71
2022/05/09 05:53:12;;;;;;;;;;;11.40;99.90;;;;;;5035871;28;19909;-71
2022/05/09 05:55:38;;;;;;;;;;;11.60;99.90;;;;;;5035902;28;19904;-71
2022/05/09 05:58:04;;;;;;;;;;;11.90;99.90;;;;;;5053784;28;19909;-71
2022/05/09 06:00:29;;;;;;;;;;;12.00;99.90;;;;;;5054038;28;19905;-71
2022/05/09 06:02:55;;;;;;;;;;;12.30;99.90;;;;;;5053732;28;19991;-71
2022/05/09 06:05:20;;;;;;;;;;;12.70;99.90;;;;;;5053973;28;20304;-71
2022/05/09 06:07:52;;;;;;;;;;;13.80;99.90;;;;;;5053652;28;20437;-71
2022/05/09 06:10:18;;;;;;;;;;;14.70;99.90;;;;;;5054136;28;19905;-71
2022/05/09 06:12:44;;;;;;;;;;;15.40;99.90;;;;;;5053498;28;19909;-71
2022/05/09 06:17:54;;;;;;;;;;;16.10;99.90;;;;;;5053581;28;19916;-71
2022/05/09 06:20:20;;;;;;;;;;;16.40;99.90;;;;;;5053801;28;20269;-71
2022/05/09 06:22:45;;;;;;;;;;;16.40;99.90;;;;;;5053481;28;19904;-71
2022/05/09 06:25:13;;;;;;;;;;;16.30;99.90;;;;;;5053358;28;19923;-71
2022/05/09 06:27:39;;;;;;;;;;;16.80;99.90;;;;;;5053463;28;19905;-71
2022/05/09 06:30:06;;;;;;;;;;;17.00;99.90;;;;;;5053455;28;19912;-71
2022/05/09 06:32:31;;;;;;;;;;;17.40;99.90;;;;;;5056527;28;19994;-71
2022/05/09 06:34:57;;;;;;;;;;;18.00;99.90;;;;;;5057383;28;19959;-71
2022/05/09 06:37:24;;;;;;;;;;;18.90;99.90;;;;;;5057721;28;19912;-71
2022/05/09 06:39:51;;;;;;;;;;;20.00;99.90;;;;;;5057665;28;19905;-71
2022/05/09 06:42:17;;;;;;;;;;;20.40;99.90;;;;;;5057134;28;20340;-71
2022/05/09 06:44:42;;;;;;;;;;;20.40;99.90;;;;;;5055730;28;20003;-71
2022/05/09 06:47:10;;;;;;;;;;;20.60;99.90;;;;;;5037910;28;19911;-71
2022/05/09 06:49:36;;;;;;;;;;;21.20;99.90;;;;;;5056878;28;19905;-71
2022/05/09 06:52:01;;;;;;;;;;;21.20;99.90;;;;;;5057036;28;19928;-71
2022/05/09 06:54:27;;;;;;;;;;;22.00;99.90;;;;;;5057646;28;19916;-71
2022/05/09 06:56:52;;;;;;;;;;;22.30;99.90;;;;;;5057080;28;19952;-71
2022/05/09 06:59:21;;;;;;;;;;;22.50;99.90;;;;;;5057077;28;19932;-71
2022/05/09 07:01:47;;;;;;;;;;;22.80;99.90;;;;;;5037748;28;19909;-73
2022/05/09 07:04:12;;;;;;;;;;;23.10;99.90;;;;;;5056948;28;19991;-74
2022/05/09 07:06:38;;;;;;;;;;;24.00;99.90;;;;;;5053504;28;20367;-73
2022/05/09 07:09:10;;;;;;;;;;;24.20;99.90;;;;;;5055837;28;19958;-75
2022/05/09 07:11:39;;;;;;;;;;;24.70;99.10;;;;;;5055234;28;19916;-74
2022/05/09 07:14:04;;;;;;;;;;;25.00;98.70;;;;;;5038147;28;19919;-72
2022/05/09 07:16:30;;;;;;;;;;;25.20;98.50;;;;;;5046150;28;19909;-74
2022/05/09 07:18:55;;;;;;;;;;;25.60;98.00;;;;;;5036691;28;19905;-74
2022/05/09 07:21:21;;;;;;;;;;;24.90;98.00;;;;;;5036944;28;19905;-75
2022/05/09 07:23:46;;;;;;;;;;;24.90;97.30;;;;;;5035982;28;19913;-75
2022/05/09 07:26:12;;;;;;;;;;;25.60;97.50;;;;;;5039747;28;19909;-73
2022/05/09 07:28:38;;;;;;;;;;;26.30;96.60;;;;;;5052967;28;19932;-75
2022/05/09 07:31:04;;;;;;;;;;;26.60;96.30;;;;;;5053192;28;20289;-73
2022/05/09 07:33:30;;;;;;;;;;;27.60;95.20;;;;;;5054881;28;19916;-80
2022/05/09 07:35:56;;;;;;;;;;;29.90;94.20;;;;;;5054857;28;20365;-79
2022/05/09 07:38:22;;;;;;;;;;;31.00;92.10;;;;;;5052333;28;19909;-77
2022/05/09 07:40:47;;;;;;;;;;;32.50;89.90;;;;;;5043787;28;20281;-79
2022/05/09 07:43:16;;;;;;;;;;;32.90;87.60;;;;;;5034707;28;20424;-77
2022/05/09 07:45:43;;;;;;;;;;;33.30;84.90;;;;;;5035103;28;19955;-76
2022/05/09 07:48:09;;;;;;;;;;;33.90;81.30;;;;;;5042644;28;19908;-75
2022/05/09 07:50:35;;;;;;;;;;;33.90;77.90;;;;;;5053404;28;19909;-72
2022/05/09 07:53:07;;;;;;;;;;;32.10;75.00;;;;;;5054783;28;19908;-75
2022/05/09 07:55:33;;;;;;;;;;;33.20;72.10;;;;;;5036907;28;20383;-77
2022/05/09 07:57:58;;;;;;;;;;;33.30;69.50;;;;;;5052989;28;19993;-76
2022/05/09 08:00:24;;;;;;;;;;;33.40;69.50;;;;;;5054737;28;19943;-74
2022/05/09 08:02:49;;;;;;;;;;;33.40;68.70;;;;;;5054714;28;19904;-75
2022/05/09 08:05:15;;;;;;;;;;;33.10;68.60;;;;;;5054774;28;19958;-74
2022/05/09 08:07:41;;;;;;;;;;;32.30;68.90;;;;;;5053157;28;19954;-74
2022/05/09 08:10:08;;;;;;;;;;;32.20;69.40;;;;;;5054350;28;19905;-74
2022/05/09 08:12:33;;;;;;;;;;;32.20;69.30;;;;;;5054763;28;19959;-75
2022/05/09 08:14:59;;;;;;;;;;;32.00;69.90;;;;;;5055037;28;20381;-74
2022/05/09 08:17:24;;;;;;;;;;;31.80;69.40;;;;;;5055010;28;19905;-76
2022/05/09 08:19:55;;;;;;;;;;;31.50;69.70;;;;;;5036070;28;19931;-75
2022/05/09 08:22:21;;;;;;;;;;;31.20;69.90;;;;;;5054793;28;19905;-76
2022/05/09 08:24:46;;;;;;;;;;;31.10;69.20;;;;;;5001703;28;1529445;-75
2022/05/09 08:27:12;;;;;;;;;;;30.60;69.60;;;;;;5051463;28;19912;-78
2022/05/09 08:29:38;;;;;;;;;;;30.40;70.20;;;;;;5056042;28;20253;-79
2022/05/09 08:32:03;;;;;;;;;;;30.10;70.60;;;;;;5055708;28;19924;-76
2022/05/09 08:34:29;;;;;;;;;;;29.70;72.10;;;;;;5054434;28;19913;-77
2022/05/09 08:36:55;;;;;;;;;;;29.40;72.20;;;;;;5054640;28;19916;-74
2022/05/09 08:39:22;;;;;;;;;;;29.30;71.90;;;;;;5035589;28;19916;-75
2022/05/09 08:41:50;;;;;;;;;;;29.30;72.00;;;;;;5034407;28;19916;-76
2022/05/09 08:44:22;;;;;;;;;;;29.10;73.70;;;;;;5051211;28;19928;-78
2022/05/09 08:46:53;;;;;;;;;;;28.90;73.60;;;;;;5037115;28;19908;-75
2022/05/09 08:49:19;;;;;;;;;;;28.80;72.80;;;;;;5055311;28;20387;-77
2022/05/09 08:51:52;;;;;;;;;;;28.70;74.50;;;;;;5054309;28;19912;-77
2022/05/09 08:54:19;;;;;;;;;;;28.70;73.90;;;;;;5053397;28;20019;-74
2022/05/09 08:56:47;;;;;;;;;;;28.80;74.10;;;;;;5055075;28;19905;-79
2022/05/09 08:59:13;;;;;;;;;;;28.80;74.70;;;;;;5054939;28;19947;-80
2022/05/09 09:01:49;;;;;;;;;;;28.70;74.30;;;;;;5054844;28;19908;-76
2022/05/09 09:04:24;;;;;;;;;;;28.40;74.40;;;;;;5054338;28;20415;-75
2022/05/09 09:07:08;;;;;;;;;;;28.20;75.60;;;;;;5054096;28;19909;-76
2022/05/09 09:09:40;;;;;;;;;;;27.90;75.30;;;;;;5051396;28;19943;-75
2022/05/09 09:12:28;;;;;;;;;;;28.00;76.50;;;;;;5036302;28;19912;-77
2022/05/09 09:15:03;;;;;;;;;;;28.00;76.00;;;;;;5054738;28;20447;-77
2022/05/09 09:17:47;;;;;;;;;;;28.10;76.00;;;;;;5053097;28;19992;-77
2022/05/09 09:20:16;;;;;;;;;;;27.90;75.80;;;;;;5035349;28;19905;-75
2022/05/09 09:22:54;;;;;;;;;;;27.60;75.60;;;;;;5034425;28;20278;-77
2022/05/09 09:25:34;;;;;;;;;;;27.60;77.00;;;;;;5048229;28;20332;-77
2022/05/09 09:28:11;;;;;;;;;;;27.60;77.20;;;;;;5054910;28;19946;-72
2022/05/09 09:30:38;;;;;;;;;;;27.60;76.30;;;;;;5054667;28;19927;-74
2022/05/09 09:33:05;;;;;;;;;;;27.60;76.50;;;;;;5061805;28;20026;-74
2022/05/09 09:35:33;;;;;;;;;;;27.70;75.60;;;;;;5070072;28;20407;-78
2022/05/09 09:38:22;;;;;;;;;;;27.40;74.70;;;;;;5074373;28;19960;-76
2022/05/09 09:40:48;;;;;;;;;;;27.30;75.40;;;;;;5074401;28;19912;-74
2022/05/09 09:43:13;;;;;;;;;;;27.30;76.00;;;;;;5074387;28;19904;-73
2022/05/09 09:45:44;;;;;;;;;;;27.40;76.40;;;;;;5073417;28;19912;-73
2022/05/09 09:48:13;;;;;;;;;;;27.40;75.50;;;;;;5073174;28;20011;-75
2022/05/09 09:50:53;;;;;;;;;;;27.20;75.60;;;;;;5072682;28;19954;-74
2022/05/09 09:53:48;;;;;;;;;;;26.70;82.60;;;;;;5070001;28;20002;-75
2022/05/09 09:56:20;;;;;;;;;;;26.80;81.70;;;;;;5062058;28;19944;-74
2022/05/09 09:58:45;;;;;;;;;;;26.90;78.70;;;;;;5069317;28;19944;-75
2022/05/09 10:01:11;;;;;;;;;;;27.00;78.50;;;;;;5071528;28;19940;-75
2022/05/09 10:03:38;;;;;;;;;;;27.10;79.10;;;;;;5073402;28;19909;-72
2022/05/09 10:06:14;;;;;;;;;;;27.20;76.00;;;;;;5060755;28;19908;-74
2022/05/09 10:08:40;;;;;;;;;;;26.80;76.70;;;;;;5063521;28;19908;-73
2022/05/09 10:11:28;;;;;;;;;;;26.70;76.80;;;;;;5055012;28;20390;-74
2022/05/09 10:13:55;;;;;;;;;;;26.80;77.70;;;;;;5070726;28;19985;-77
2022/05/09 10:16:24;;;;;;;;;;;27.00;77.40;;;;;;5059403;28;20324;-74
2022/05/09 10:18:52;;;;;;;;;;;26.90;76.30;;;;;;5054051;28;19912;-75
2022/05/09 10:24:49;;;;;;;;;;;26.90;76.80;;;;;;5043487;28;19924;-75
2022/05/09 10:27:21;;;;;;;;;;;26.80;77.60;;;;;;5033323;28;19912;-73
2022/05/09 10:29:49;;;;;;;;;;;26.80;76.60;;;;;;5033689;28;19912;-75
2022/05/09 10:32:17;;;;;;;;;;;26.80;76.30;;;;;;5033956;28;19912;-74
2022/05/09 10:34:51;;;;;;;;;;;26.60;75.90;;;;;;5033439;28;19970;-75
2022/05/09 10:37:23;;;;;;;;;;;26.50;77.30;;;;;;5014958;28;19905;-73
2022/05/09 10:40:09;;;;;;;;;;;26.60;77.60;;;;;;5032506;28;19932;-76
2022/05/09 10:42:38;;;;;;;;;;;26.70;77.80;;;;;;5014628;28;19905;-75
2022/05/09 10:45:06;;;;;;;;;;;26.90;77.00;;;;;;5032402;28;19909;-76
2022/05/09 10:47:38;;;;;;;;;;;27.00;76.50;;;;;;5032430;28;19955;-77
2022/05/09 10:50:15;;;;;;;;;;;27.00;75.70;;;;;;5032865;28;20278;-75
2022/05/09 10:52:48;;;;;;;;;;;26.90;73.80;;;;;;5033297;28;19958;-76
2022/05/09 10:55:23;;;;;;;;;;;26.80;75.30;;;;;;5033586;28;19912;-76
2022/05/09 10:57:52;;;;;;;;;;;26.80;76.50;;;;;;5015617;28;20357;-75
2022/05/09 11:00:20;;;;;;;;;;;26.80;75.50;;;;;;5033530;28;19905;-75
2022/05/09 11:02:58;;;;;;;;;;;26.80;75.90;;;;;;5033267;28;19944;-77
2022/05/09 11:05:25;;;;;;;;;;;27.00;75.30;;;;;;5032864;28;19916;-74
2022/05/09 11:07:58;;;;;;;;;;;26.90;75.90;;;;;;5033175;28;19940;-74
2022/05/09 11:10:43;;;;;;;;;;;27.00;76.00;;;;;;5033753;28;19943;-76
2022/05/09 11:13:20;;;;;;;;;;;26.90;74.00;;;;;;5033521;28;19913;-77
2022/05/09 11:15:51;;;;;;;;;;;26.60;74.00;;;;;;5033446;28;20266;-75
2022/05/09 11:18:33;;;;;;;;;;;26.60;75.60;;;;;;5035886;28;19927;-74
2022/05/09 11:21:07;;;;;;;;;;;26.60;74.30;;;;;;5018796;28;19956;-76
2022/05/09 11:23:46;;;;;;;;;;;26.50;73.80;;;;;;5036999;28;20301;-75
2022/05/09 11:26:30;;;;;;;;;;;26.40;73.60;;;;;;5037024;28;19999;-76
2022/05/09 11:29:14;;;;;;;;;;;26.40;74.60;;;;;;5036605;28;19905;-73
2022/05/09 11:31:58;;;;;;;;;;;26.40;74.30;;;;;;5036560;28;19905;-77
2022/05/09 11:34:27;;;;;;;;;;;26.50;73.50;;;;;;5036392;28;19913;-76
2022/05/09 11:36:52;;;;;;;;;;;26.60;73.10;;;;;;5036434;28;20380;-76
2022/05/09 11:39:33;;;;;;;;;;;26.70;72.80;;;;;;5036975;28;19905;-75
2022/05/09 11:43:27;;;;;;;;;;;26.80;73.30;;;;;;5036384;28;19950;-75
2022/05/09 11:44:57;;;;;;;;;;;26.90;74.70;;;;;;5035969;28;19905;-75
2022/05/09 11:47:35;;;;;;;;;;;27.00;73.20;;;;;;5036852;28;20036;-76
2022/05/09 11:50:09;;;;;;;;;;;27.20;72.70;;;;;;5036238;28;19954;-77
2022/05/09 11:52:42;;;;;;;;;;;27.10;71.80;;;;;;5036466;28;19905;-75
2022/05/09 11:55:18;;;;;;;;;;;27.10;71.70;;;;;;5018298;28;19956;-75
2022/05/09 11:57:47;;;;;;;;;;;27.10;70.40;;;;;;5036316;28;19916;-75
2022/05/09 12:00:30;;;;;;;;;;;27.40;72.70;;;;;;5036279;28;19912;-76
2022/05/09 12:02:57;;;;;;;;;;;27.50;73.00;;;;;;5036401;28;19905;-77
2022/05/09 12:05:35;;;;;;;;;;;27.80;72.70;;;;;;5046338;28;19932;-75
2022/05/09 12:08:19;;;;;;;;;;;27.60;71.60;;;;;;5053787;28;19999;-75
2022/05/09 12:10:47;;;;;;;;;;;27.30;72.10;;;;;;5046462;28;19908;-75
2022/05/09 12:13:15;;;;;;;;;;;27.10;71.60;;;;;;5036176;28;20004;-75
2022/05/09 12:15:50;;;;;;;;;;;27.40;72.60;;;;;;5037605;28;19996;-75
2022/05/09 12:18:20;;;;;;;;;;;27.70;71.60;;;;;;5055523;28;19904;-75
2022/05/09 12:20:45;;;;;;;;;;;27.90;71.70;;;;;;5055740;28;19994;-76
2022/05/09 12:23:12;;;;;;;;;;;27.90;70.30;;;;;;5054085;28;20311;-76
2022/05/09 12:25:43;;;;;;;;;;;27.90;68.80;;;;;;5050059;28;20254;-77
2022/05/09 12:28:18;;;;;;;;;;;27.70;68.60;;;;;;5054563;28;19912;-77
2022/05/09 12:30:44;;;;;;;;;;;27.50;68.90;;;;;;5052624;28;19919;-77
2022/05/09 12:33:14;;;;;;;;;;;27.50;68.70;;;;;;5037347;28;19905;-76
2022/05/09 12:35:42;;;;;;;;;;;27.60;68.00;;;;;;5035899;28;19908;-76
2022/05/09 12:38:10;;;;;;;;;;;27.70;68.50;;;;;;5054579;28;19908;-74
2022/05/09 12:40:36;;;;;;;;;;;27.90;70.20;;;;;;5054069;28;19913;-76
2022/05/09 12:43:02;;;;;;;;;;;27.80;69.00;;;;;;5037285;28;20350;-76
2022/05/09 12:45:28;;;;;;;;;;;28.00;68.50;;;;;;5035223;28;19913;-76
2022/05/09 12:47:54;;;;;;;;;;;28.20;68.60;;;;;;5035604;28;20350;-78
2022/05/09 12:50:24;;;;;;;;;;;28.00;67.60;;;;;;5035704;28;19911;-74
2022/05/09 12:52:52;;;;;;;;;;;27.50;67.60;;;;;;5034985;28;19951;-74
2022/05/09 12:58:19;;;;;;;;;;;26.70;67.80;;;;;;5052949;28;19916;-75
2022/05/09 13:00:45;;;;;;;;;;;26.90;68.40;;;;;;5016962;28;19909;-76
2022/05/09 13:03:10;;;;;;;;;;;27.10;68.00;;;;;;5034729;28;20285;-77
2022/05/09 13:05:41;;;;;;;;;;;27.30;67.80;;;;;;5034770;28;19905;-76
2022/05/09 13:08:08;;;;;;;;;;;27.30;68.70;;;;;;5052771;28;19913;-76
2022/05/09 13:10:43;;;;;;;;;;;27.10;68.50;;;;;;5036729;28;20285;-76
2022/05/09 13:13:09;;;;;;;;;;;26.90;69.40;;;;;;5055250;28;20328;-78
2022/05/09 13:15:34;;;;;;;;;;;26.80;68.50;;;;;;5053412;28;19912;-76
2022/05/09 13:18:06;;;;;;;;;;;26.90;68.90;;;;;;5053658;28;19952;-78
2022/05/09 13:20:36;;;;;;;;;;;27.10;68.80;;;;;;5054191;28;19915;-78
2022/05/09 13:23:08;;;;;;;;;;;27.40;68.00;;;;;;5054660;28;19905;-75
2022/05/09 13:25:36;;;;;;;;;;;27.50;66.90;;;;;;5053995;28;20327;-76
2022/05/09 13:28:07;;;;;;;;;;;27.50;64.90;;;;;;5055036;28;20333;-75
2022/05/09 13:30:40;;;;;;;;;;;27.50;66.10;;;;;;5053974;28;19909;-76
2022/05/09 13:33:06;;;;;;;;;;;27.50;65.00;;;;;;5054556;28;20246;-74
2022/05/09 13:35:34;;;;;;;;;;;27.30;66.30;;;;;;5053840;28;19986;-75
2022/05/09 13:38:18;;;;;;;;;;;27.40;68.10;;;;;;5054089;28;19905;-75
2022/05/09 13:40:45;;;;;;;;;;;27.40;66.60;;;;;;5032961;28;19913;-74
2022/05/09 13:43:13;;;;;;;;;;;27.40;68.60;;;;;;5054019;28;19905;-75
2022/05/09 13:45:40;;;;;;;;;;;27.40;68.10;;;;;;5054383;28;19909;-75
2022/05/09 13:48:07;;;;;;;;;;;27.40;68.10;;;;;;5036104;28;19955;-75
2022/05/09 13:50:34;;;;;;;;;;;27.30;67.70;;;;;;5035183;28;19920;-77
2022/05/09 13:53:04;;;;;;;;;;;27.20;66.90;;;;;;5053227;28;19912;-75
2022/05/09 13:55:31;;;;;;;;;;;26.90;66.70;;;;;;5051130;28;19916;-73
2022/05/09 13:57:58;;;;;;;;;;;26.90;66.70;;;;;;5052261;28;20354;-73
2022/05/09 14:00:47;;;;;;;;;;;26.90;66.10;;;;;;5052699;28;19920;-74
2022/05/09 14:03:13;;;;;;;;;;;;;;;;;;5053067;28;19916;-71
2022/05/09 14:05:40;;;;;;;;;;;;;;;;;;5052949;28;19908;-73
2022/05/09 14:08:06;;;;;;;;;;;;;;;;;;5053119;28;19962;-72
2022/05/09 14:10:37;;;;;;;;;;;;;;;;;;5052165;28;20262;-74
2022/05/09 14:13:03;;;;;;;;;;;;;;;;;;5035492;28;19999;-73
2022/05/09 14:15:30;;;;;;;;;;;;;;;;;;5050341;28;19909;-74
2022/05/09 14:17:56;;;;;;;;;;;;;;;;;;5034951;28;19959;-73
2022/05/09 14:20:22;;;;;;;;;;;;;;;;;;5035031;28;19912;-74
2022/05/09 14:22:48;;;;;;;;;;;;;;;;;;5053529;28;19952;-74
2022/05/09 14:30:43;;;;;;;;;;;27.60;66.30;;;;;;5051426;28;19931;-74
2022/05/09 14:33:27;;;;;;;;;;;27.80;67.40;;;;;;5051883;28;19995;-72
2022/05/09 14:35:53;;;;;;;;;;;27.70;66.60;;;;;;5052926;28;19992;-76
2022/05/09 14:38:30;;;;;;;;;;;27.50;66.20;;;;;;5052944;28;19948;-74
2022/05/09 14:44:15;;;;;;;;;;;27.10;67.50;;;;;;5053103;28;19958;-74
2022/05/09 14:46:53;;;;;;;;;;;27.10;65.80;;;;;;5053551;28;19904;-73
2022/05/09 14:49:19;;;;;;;;;;;27.30;67.30;;;;;;5053278;28;19904;-73
2022/05/09 14:51:53;;;;;;;;;;;27.50;67.70;;;;;;5053670;28;20353;-76
2022/05/09 14:54:19;;;;;;;;;;;27.50;67.00;;;;;;5057478;28;19944;-72
2022/05/09 14:59:29;;;;;;;;;;;27.50;66.50;;;;;;5057139;28;19912;-72
2022/05/09 15:02:02;;;;;;;;;;;27.60;67.50;;;;;;5057049;28;19908;-74